sensor_id;sensor_type;location;lat;lon;timestamp;P1;durP1;ratioP1;P2;durP2;ratioP2
12780;SDS011;6454;43.304;24.344;2024-03-02T00:01:58;30.92;;;14.25;;
12780;SDS011;6454;43.304;24.344;2024-03-02T00:04:24;32.90;;;14.65;;
12780;SDS011;6454;43.304;24.344;2024-03-02T00:06:51;34.22;;;15.48;;
12780;SDS011;6454;43.304;24.344;2024-03-02T00:09:19;36.38;;;15.70;;
12780;SDS011;6454;43.304;24.344;2024-03-02T00:11:45;38.95;;;16.65;;
12780;SDS011;6454;43.304;24.344;2024-03-02T00:14:11;39.80;;;17.63;;
12780;SDS011;6454;43.304;24.344;2024-03-02T00:16:37;40.65;;;18.65;;
12780;SDS011;6454;43.304;24.344;2024-03-02T00:19:03;41.33;;;18.67;;
12780;SDS011;6454;43.304;24.344;2024-03-02T00:21:31;39.78;;;18.63;;
12780;SDS011;6454;43.304;24.344;2024-03-02T00:23:58;41.80;;;18.75;;
12780;SDS011;6454;43.304;24.344;2024-03-02T00:26:25;37.95;;;17.63;;
12780;SDS011;6454;43.304;24.344;2024-03-02T00:28:51;40.42;;;17.52;;
12780;SDS011;6454;43.304;24.344;2024-03-02T00:31:21;35.05;;;17.23;;
12780;SDS011;6454;43.304;24.344;2024-03-02T00:33:47;40.75;;;16.95;;
12780;SDS011;6454;43.304;24.344;2024-03-02T00:36:14;38.38;;;18.20;;
12780;SDS011;6454;43.304;24.344;2024-03-02T00:38:47;39.63;;;16.85;;
12780;SDS011;6454;43.304;24.344;2024-03-02T00:41:21;37.95;;;16.58;;
12780;SDS011;6454;43.304;24.344;2024-03-02T00:46:20;37.50;;;16.50;;
12780;SDS011;6454;43.304;24.344;2024-03-02T00:48:56;44.80;;;18.55;;
12780;SDS011;6454;43.304;24.344;2024-03-02T00:51:24;43.25;;;17.67;;
12780;SDS011;6454;43.304;24.344;2024-03-02T00:53:54;34.45;;;16.67;;
12780;SDS011;6454;43.304;24.344;2024-03-02T00:56:21;39.38;;;17.85;;
12780;SDS011;6454;43.304;24.344;2024-03-02T00:58:47;36.28;;;16.52;;
12780;SDS011;6454;43.304;24.344;2024-03-02T01:01:13;36.13;;;16.92;;
12780;SDS011;6454;43.304;24.344;2024-03-02T01:03:38;36.25;;;17.42;;
12780;SDS011;6454;43.304;24.344;2024-03-02T01:06:04;43.80;;;18.42;;
12780;SDS011;6454;43.304;24.344;2024-03-02T01:08:30;41.53;;;18.52;;
12780;SDS011;6454;43.304;24.344;2024-03-02T01:10:56;38.80;;;18.80;;
12780;SDS011;6454;43.304;24.344;2024-03-02T01:13:22;43.15;;;18.45;;
12780;SDS011;6454;43.304;24.344;2024-03-02T01:15:48;37.72;;;16.73;;
12780;SDS011;6454;43.304;24.344;2024-03-02T01:18:14;37.22;;;16.55;;
12780;SDS011;6454;43.304;24.344;2024-03-02T01:20:39;29.42;;;13.95;;
12780;SDS011;6454;43.304;24.344;2024-03-02T01:23:05;35.17;;;15.50;;
12780;SDS011;6454;43.304;24.344;2024-03-02T01:25:30;37.80;;;15.98;;
12780;SDS011;6454;43.304;24.344;2024-03-02T01:27:56;31.80;;;14.85;;
12780;SDS011;6454;43.304;24.344;2024-03-02T01:30:21;32.95;;;14.63;;
12780;SDS011;6454;43.304;24.344;2024-03-02T01:32:47;34.85;;;14.57;;
12780;SDS011;6454;43.304;24.344;2024-03-02T01:35:12;37.83;;;15.93;;
12780;SDS011;6454;43.304;24.344;2024-03-02T01:37:38;42.53;;;16.75;;
12780;SDS011;6454;43.304;24.344;2024-03-02T01:40:03;41.53;;;16.08;;
12780;SDS011;6454;43.304;24.344;2024-03-02T01:42:34;33.83;;;15.20;;
12780;SDS011;6454;43.304;24.344;2024-03-02T01:45:07;42.47;;;16.25;;
12780;SDS011;6454;43.304;24.344;2024-03-02T01:47:34;41.55;;;16.77;;
12780;SDS011;6454;43.304;24.344;2024-03-02T01:50:00;41.42;;;15.57;;
12780;SDS011;6454;43.304;24.344;2024-03-02T01:52:26;35.97;;;14.93;;
12780;SDS011;6454;43.304;24.344;2024-03-02T01:54:52;47.05;;;16.58;;
12780;SDS011;6454;43.304;24.344;2024-03-02T01:57:18;41.85;;;15.50;;
12780;SDS011;6454;43.304;24.344;2024-03-02T01:59:45;43.05;;;15.90;;
12780;SDS011;6454;43.304;24.344;2024-03-02T02:02:13;47.40;;;17.38;;
12780;SDS011;6454;43.304;24.344;2024-03-02T02:04:39;41.85;;;16.02;;
12780;SDS011;6454;43.304;24.344;2024-03-02T02:07:04;44.67;;;16.65;;
12780;SDS011;6454;43.304;24.344;2024-03-02T02:09:31;49.88;;;17.17;;
12780;SDS011;6454;43.304;24.344;2024-03-02T02:11:57;49.53;;;17.75;;
12780;SDS011;6454;43.304;24.344;2024-03-02T02:14:22;52.35;;;16.63;;
12780;SDS011;6454;43.304;24.344;2024-03-02T02:16:48;54.15;;;18.33;;
12780;SDS011;6454;43.304;24.344;2024-03-02T02:19:15;49.30;;;18.92;;
12780;SDS011;6454;43.304;24.344;2024-03-02T02:21:43;56.65;;;20.05;;
12780;SDS011;6454;43.304;24.344;2024-03-02T02:24:09;56.25;;;21.80;;
12780;SDS011;6454;43.304;24.344;2024-03-02T02:26:35;65.45;;;23.08;;
12780;SDS011;6454;43.304;24.344;2024-03-02T02:29:01;61.55;;;21.58;;
12780;SDS011;6454;43.304;24.344;2024-03-02T02:31:26;69.40;;;22.45;;
12780;SDS011;6454;43.304;24.344;2024-03-02T02:33:52;64.63;;;22.38;;
12780;SDS011;6454;43.304;24.344;2024-03-02T02:36:17;68.53;;;23.45;;
12780;SDS011;6454;43.304;24.344;2024-03-02T02:38:46;68.65;;;24.35;;
12780;SDS011;6454;43.304;24.344;2024-03-02T02:41:14;76.18;;;27.48;;
12780;SDS011;6454;43.304;24.344;2024-03-02T02:43:39;74.93;;;23.90;;
12780;SDS011;6454;43.304;24.344;2024-03-02T02:46:05;72.57;;;25.60;;
12780;SDS011;6454;43.304;24.344;2024-03-02T02:48:30;79.22;;;25.27;;
12780;SDS011;6454;43.304;24.344;2024-03-02T02:50:56;73.70;;;25.35;;
12780;SDS011;6454;43.304;24.344;2024-03-02T02:53:21;68.95;;;23.88;;
12780;SDS011;6454;43.304;24.344;2024-03-02T02:55:47;62.05;;;22.20;;
12780;SDS011;6454;43.304;24.344;2024-03-02T02:58:12;76.75;;;25.10;;
12780;SDS011;6454;43.304;24.344;2024-03-02T03:00:38;67.97;;;23.77;;
12780;SDS011;6454;43.304;24.344;2024-03-02T03:03:03;79.75;;;24.75;;
12780;SDS011;6454;43.304;24.344;2024-03-02T03:05:29;77.93;;;24.55;;
12780;SDS011;6454;43.304;24.344;2024-03-02T03:07:54;72.05;;;24.45;;
12780;SDS011;6454;43.304;24.344;2024-03-02T03:10:20;78.80;;;25.30;;
12780;SDS011;6454;43.304;24.344;2024-03-02T03:12:48;67.20;;;23.08;;
12780;SDS011;6454;43.304;24.344;2024-03-02T03:15:14;83.45;;;24.88;;
12780;SDS011;6454;43.304;24.344;2024-03-02T03:17:41;89.28;;;27.60;;
12780;SDS011;6454;43.304;24.344;2024-03-02T03:20:07;66.80;;;22.67;;
12780;SDS011;6454;43.304;24.344;2024-03-02T03:22:35;64.03;;;23.33;;
12780;SDS011;6454;43.304;24.344;2024-03-02T03:25:01;64.53;;;23.50;;
12780;SDS011;6454;43.304;24.344;2024-03-02T03:27:26;62.90;;;23.38;;
12780;SDS011;6454;43.304;24.344;2024-03-02T03:29:52;69.55;;;22.50;;
12780;SDS011;6454;43.304;24.344;2024-03-02T03:32:17;64.55;;;22.85;;
12780;SDS011;6454;43.304;24.344;2024-03-02T03:34:43;70.78;;;22.67;;
12780;SDS011;6454;43.304;24.344;2024-03-02T03:37:08;58.33;;;21.67;;
12780;SDS011;6454;43.304;24.344;2024-03-02T03:39:35;69.13;;;24.10;;
12780;SDS011;6454;43.304;24.344;2024-03-02T03:42:03;59.45;;;22.25;;
12780;SDS011;6454;43.304;24.344;2024-03-02T03:44:29;64.00;;;21.45;;
12780;SDS011;6454;43.304;24.344;2024-03-02T03:46:54;63.17;;;22.33;;
12780;SDS011;6454;43.304;24.344;2024-03-02T03:49:20;59.05;;;21.70;;
12780;SDS011;6454;43.304;24.344;2024-03-02T03:51:45;55.90;;;22.08;;
12780;SDS011;6454;43.304;24.344;2024-03-02T03:54:11;58.75;;;20.70;;
12780;SDS011;6454;43.304;24.344;2024-03-02T03:56:37;59.28;;;21.60;;
12780;SDS011;6454;43.304;24.344;2024-03-02T03:59:02;56.10;;;21.38;;
12780;SDS011;6454;43.304;24.344;2024-03-02T04:01:28;63.83;;;23.77;;
12780;SDS011;6454;43.304;24.344;2024-03-02T04:03:53;62.58;;;23.23;;
12780;SDS011;6454;43.304;24.344;2024-03-02T04:06:19;61.47;;;22.80;;
12780;SDS011;6454;43.304;24.344;2024-03-02T04:08:44;56.30;;;23.83;;
12780;SDS011;6454;43.304;24.344;2024-03-02T04:11:10;60.67;;;23.60;;
12780;SDS011;6454;43.304;24.344;2024-03-02T04:13:35;53.35;;;22.27;;
12780;SDS011;6454;43.304;24.344;2024-03-02T04:16:01;62.17;;;24.80;;
12780;SDS011;6454;43.304;24.344;2024-03-02T04:18:26;55.10;;;22.27;;
12780;SDS011;6454;43.304;24.344;2024-03-02T04:20:51;57.13;;;22.75;;
12780;SDS011;6454;43.304;24.344;2024-03-02T04:23:17;58.92;;;21.95;;
12780;SDS011;6454;43.304;24.344;2024-03-02T04:25:42;49.55;;;21.48;;
12780;SDS011;6454;43.304;24.344;2024-03-02T04:28:08;58.92;;;23.35;;
12780;SDS011;6454;43.304;24.344;2024-03-02T04:30:33;46.88;;;21.27;;
12780;SDS011;6454;43.304;24.344;2024-03-02T04:32:59;58.28;;;22.02;;
12780;SDS011;6454;43.304;24.344;2024-03-02T04:35:24;57.88;;;21.52;;
12780;SDS011;6454;43.304;24.344;2024-03-02T04:37:50;49.67;;;19.35;;
12780;SDS011;6454;43.304;24.344;2024-03-02T04:40:16;50.20;;;20.52;;
12780;SDS011;6454;43.304;24.344;2024-03-02T04:42:41;51.67;;;18.50;;
12780;SDS011;6454;43.304;24.344;2024-03-02T04:45:08;53.28;;;19.20;;
12780;SDS011;6454;43.304;24.344;2024-03-02T04:47:33;50.92;;;20.15;;
12780;SDS011;6454;43.304;24.344;2024-03-02T04:49:59;51.88;;;19.88;;
12780;SDS011;6454;43.304;24.344;2024-03-02T04:52:24;49.33;;;18.08;;
12780;SDS011;6454;43.304;24.344;2024-03-02T04:54:50;48.42;;;17.45;;
12780;SDS011;6454;43.304;24.344;2024-03-02T04:57:34;51.17;;;20.10;;
12780;SDS011;6454;43.304;24.344;2024-03-02T04:59:59;61.72;;;19.13;;
12780;SDS011;6454;43.304;24.344;2024-03-02T05:02:25;48.58;;;18.45;;
12780;SDS011;6454;43.304;24.344;2024-03-02T05:04:50;45.67;;;18.67;;
12780;SDS011;6454;43.304;24.344;2024-03-02T05:07:16;48.85;;;17.95;;
12780;SDS011;6454;43.304;24.344;2024-03-02T05:09:41;53.30;;;19.42;;
12780;SDS011;6454;43.304;24.344;2024-03-02T05:12:07;52.63;;;19.15;;
12780;SDS011;6454;43.304;24.344;2024-03-02T05:17:17;58.03;;;19.92;;
12780;SDS011;6454;43.304;24.344;2024-03-02T05:19:42;50.65;;;20.60;;
12780;SDS011;6454;43.304;24.344;2024-03-02T05:22:08;47.55;;;18.13;;
12780;SDS011;6454;43.304;24.344;2024-03-02T05:24:33;48.75;;;18.63;;
12780;SDS011;6454;43.304;24.344;2024-03-02T05:26:59;49.90;;;19.75;;
12780;SDS011;6454;43.304;24.344;2024-03-02T05:29:24;47.55;;;18.08;;
12780;SDS011;6454;43.304;24.344;2024-03-02T05:31:50;52.15;;;18.75;;
12780;SDS011;6454;43.304;24.344;2024-03-02T05:34:15;56.38;;;18.95;;
12780;SDS011;6454;43.304;24.344;2024-03-02T05:36:41;54.88;;;21.20;;
12780;SDS011;6454;43.304;24.344;2024-03-02T05:39:06;52.55;;;19.63;;
12780;SDS011;6454;43.304;24.344;2024-03-02T05:41:34;54.92;;;18.35;;
12780;SDS011;6454;43.304;24.344;2024-03-02T05:44:00;53.25;;;19.00;;
12780;SDS011;6454;43.304;24.344;2024-03-02T05:46:26;52.78;;;20.50;;
12780;SDS011;6454;43.304;24.344;2024-03-02T05:48:52;53.15;;;20.35;;
12780;SDS011;6454;43.304;24.344;2024-03-02T05:51:17;51.53;;;19.98;;
12780;SDS011;6454;43.304;24.344;2024-03-02T05:53:43;53.10;;;19.27;;
12780;SDS011;6454;43.304;24.344;2024-03-02T05:56:12;41.88;;;18.10;;
12780;SDS011;6454;43.304;24.344;2024-03-02T05:58:38;44.30;;;18.15;;
12780;SDS011;6454;43.304;24.344;2024-03-02T06:01:22;49.65;;;19.35;;
12780;SDS011;6454;43.304;24.344;2024-03-02T06:03:53;45.83;;;18.67;;
12780;SDS011;6454;43.304;24.344;2024-03-02T06:06:19;53.75;;;21.35;;
12780;SDS011;6454;43.304;24.344;2024-03-02T06:08:46;48.95;;;20.17;;
12780;SDS011;6454;43.304;24.344;2024-03-02T06:11:11;54.03;;;21.27;;
12780;SDS011;6454;43.304;24.344;2024-03-02T06:13:36;54.25;;;20.08;;
12780;SDS011;6454;43.304;24.344;2024-03-02T06:16:02;55.83;;;19.08;;
12780;SDS011;6454;43.304;24.344;2024-03-02T06:18:27;48.20;;;18.17;;
12780;SDS011;6454;43.304;24.344;2024-03-02T06:20:53;57.53;;;18.98;;
12780;SDS011;6454;43.304;24.344;2024-03-02T06:23:18;46.50;;;17.92;;
12780;SDS011;6454;43.304;24.344;2024-03-02T06:25:44;52.13;;;18.20;;
12780;SDS011;6454;43.304;24.344;2024-03-02T06:28:09;51.53;;;20.95;;
12780;SDS011;6454;43.304;24.344;2024-03-02T06:30:35;45.15;;;19.08;;
12780;SDS011;6454;43.304;24.344;2024-03-02T06:33:00;50.80;;;19.48;;
12780;SDS011;6454;43.304;24.344;2024-03-02T06:35:27;48.63;;;20.20;;
12780;SDS011;6454;43.304;24.344;2024-03-02T06:37:52;42.88;;;18.75;;
12780;SDS011;6454;43.304;24.344;2024-03-02T06:40:17;46.40;;;19.77;;
12780;SDS011;6454;43.304;24.344;2024-03-02T06:42:43;51.58;;;19.10;;
12780;SDS011;6454;43.304;24.344;2024-03-02T06:45:09;47.30;;;19.20;;
12780;SDS011;6454;43.304;24.344;2024-03-02T06:47:34;43.20;;;16.30;;
12780;SDS011;6454;43.304;24.344;2024-03-02T06:50:00;52.67;;;17.92;;
12780;SDS011;6454;43.304;24.344;2024-03-02T06:52:25;42.47;;;16.00;;
12780;SDS011;6454;43.304;24.344;2024-03-02T06:54:51;41.55;;;16.33;;
12780;SDS011;6454;43.304;24.344;2024-03-02T06:57:16;44.55;;;17.05;;
12780;SDS011;6454;43.304;24.344;2024-03-02T06:59:42;53.17;;;16.48;;
12780;SDS011;6454;43.304;24.344;2024-03-02T07:02:07;47.83;;;17.20;;
12780;SDS011;6454;43.304;24.344;2024-03-02T07:04:33;42.03;;;15.45;;
12780;SDS011;6454;43.304;24.344;2024-03-02T07:06:59;42.55;;;17.23;;
12780;SDS011;6454;43.304;24.344;2024-03-02T07:09:24;44.53;;;16.40;;
12780;SDS011;6454;43.304;24.344;2024-03-02T07:11:50;41.75;;;17.90;;
12780;SDS011;6454;43.304;24.344;2024-03-02T07:14:16;40.35;;;16.20;;
12780;SDS011;6454;43.304;24.344;2024-03-02T07:16:41;45.58;;;18.27;;
12780;SDS011;6454;43.304;24.344;2024-03-02T07:19:08;45.85;;;17.77;;
12780;SDS011;6454;43.304;24.344;2024-03-02T07:21:34;37.78;;;15.73;;
12780;SDS011;6454;43.304;24.344;2024-03-02T07:23:59;41.03;;;17.35;;
12780;SDS011;6454;43.304;24.344;2024-03-02T07:26:27;43.90;;;19.77;;
12780;SDS011;6454;43.304;24.344;2024-03-02T07:28:55;45.00;;;19.15;;
12780;SDS011;6454;43.304;24.344;2024-03-02T07:31:20;48.83;;;17.23;;
12780;SDS011;6454;43.304;24.344;2024-03-02T07:33:46;39.65;;;17.42;;
12780;SDS011;6454;43.304;24.344;2024-03-02T07:36:11;43.63;;;16.63;;
12780;SDS011;6454;43.304;24.344;2024-03-02T07:38:37;48.65;;;18.05;;
12780;SDS011;6454;43.304;24.344;2024-03-02T07:41:03;46.30;;;17.58;;
12780;SDS011;6454;43.304;24.344;2024-03-02T07:43:29;41.40;;;16.48;;
12780;SDS011;6454;43.304;24.344;2024-03-02T07:45:56;36.92;;;15.45;;
12780;SDS011;6454;43.304;24.344;2024-03-02T07:48:22;42.80;;;18.05;;
12780;SDS011;6454;43.304;24.344;2024-03-02T07:50:48;42.35;;;16.02;;
12780;SDS011;6454;43.304;24.344;2024-03-02T07:53:13;36.58;;;16.48;;
12780;SDS011;6454;43.304;24.344;2024-03-02T07:55:39;39.85;;;16.95;;
12780;SDS011;6454;43.304;24.344;2024-03-02T07:58:05;40.13;;;16.67;;
12780;SDS011;6454;43.304;24.344;2024-03-02T08:00:31;38.42;;;15.05;;
12780;SDS011;6454;43.304;24.344;2024-03-02T08:02:57;45.53;;;19.42;;
12780;SDS011;6454;43.304;24.344;2024-03-02T08:05:23;37.95;;;15.52;;
12780;SDS011;6454;43.304;24.344;2024-03-02T08:07:48;35.05;;;14.45;;
12780;SDS011;6454;43.304;24.344;2024-03-02T08:10:18;32.92;;;13.50;;
12780;SDS011;6454;43.304;24.344;2024-03-02T08:12:45;31.42;;;14.30;;
12780;SDS011;6454;43.304;24.344;2024-03-02T08:15:11;23.60;;;12.48;;
12780;SDS011;6454;43.304;24.344;2024-03-02T08:17:39;25.20;;;12.35;;
12780;SDS011;6454;43.304;24.344;2024-03-02T08:20:13;33.20;;;12.63;;
12780;SDS011;6454;43.304;24.344;2024-03-02T08:22:39;24.58;;;12.80;;
12780;SDS011;6454;43.304;24.344;2024-03-02T08:25:05;29.25;;;12.23;;
12780;SDS011;6454;43.304;24.344;2024-03-02T08:27:31;27.05;;;13.02;;
12780;SDS011;6454;43.304;24.344;2024-03-02T08:29:57;30.33;;;13.32;;
12780;SDS011;6454;43.304;24.344;2024-03-02T08:32:22;28.45;;;12.10;;
12780;SDS011;6454;43.304;24.344;2024-03-02T08:34:48;30.77;;;13.73;;
12780;SDS011;6454;43.304;24.344;2024-03-02T08:37:13;30.27;;;13.27;;
12780;SDS011;6454;43.304;24.344;2024-03-02T08:39:39;27.15;;;13.45;;
12780;SDS011;6454;43.304;24.344;2024-03-02T08:42:04;27.80;;;12.65;;
12780;SDS011;6454;43.304;24.344;2024-03-02T08:44:34;29.00;;;13.48;;
12780;SDS011;6454;43.304;24.344;2024-03-02T08:47:00;31.23;;;14.15;;
12780;SDS011;6454;43.304;24.344;2024-03-02T08:49:27;29.25;;;13.20;;
12780;SDS011;6454;43.304;24.344;2024-03-02T08:51:52;37.95;;;13.75;;
12780;SDS011;6454;43.304;24.344;2024-03-02T08:54:22;30.88;;;13.30;;
12780;SDS011;6454;43.304;24.344;2024-03-02T08:56:51;27.73;;;13.88;;
12780;SDS011;6454;43.304;24.344;2024-03-02T08:59:16;30.55;;;14.18;;
12780;SDS011;6454;43.304;24.344;2024-03-02T09:01:42;27.48;;;13.02;;
12780;SDS011;6454;43.304;24.344;2024-03-02T09:04:08;29.40;;;13.35;;
12780;SDS011;6454;43.304;24.344;2024-03-02T09:06:34;28.23;;;12.73;;
12780;SDS011;6454;43.304;24.344;2024-03-02T09:09:00;33.65;;;13.90;;
12780;SDS011;6454;43.304;24.344;2024-03-02T09:11:25;35.63;;;14.55;;
12780;SDS011;6454;43.304;24.344;2024-03-02T09:13:51;36.08;;;14.05;;
12780;SDS011;6454;43.304;24.344;2024-03-02T09:16:16;27.02;;;12.38;;
12780;SDS011;6454;43.304;24.344;2024-03-02T09:18:42;30.48;;;13.93;;
12780;SDS011;6454;43.304;24.344;2024-03-02T09:21:07;29.52;;;14.13;;
12780;SDS011;6454;43.304;24.344;2024-03-02T09:23:33;32.17;;;13.70;;
12780;SDS011;6454;43.304;24.344;2024-03-02T09:25:59;28.60;;;14.70;;
12780;SDS011;6454;43.304;24.344;2024-03-02T09:28:24;33.95;;;14.27;;
12780;SDS011;6454;43.304;24.344;2024-03-02T09:30:50;28.77;;;12.80;;
12780;SDS011;6454;43.304;24.344;2024-03-02T09:33:15;34.65;;;14.50;;
12780;SDS011;6454;43.304;24.344;2024-03-02T09:35:41;31.75;;;13.82;;
12780;SDS011;6454;43.304;24.344;2024-03-02T09:38:06;33.60;;;14.60;;
12780;SDS011;6454;43.304;24.344;2024-03-02T09:40:32;28.27;;;13.32;;
12780;SDS011;6454;43.304;24.344;2024-03-02T09:42:57;35.40;;;14.80;;
12780;SDS011;6454;43.304;24.344;2024-03-02T09:45:23;31.25;;;14.35;;
12780;SDS011;6454;43.304;24.344;2024-03-02T09:47:50;29.13;;;12.90;;
12780;SDS011;6454;43.304;24.344;2024-03-02T09:50:16;29.67;;;12.98;;
12780;SDS011;6454;43.304;24.344;2024-03-02T09:52:42;25.08;;;12.23;;
12780;SDS011;6454;43.304;24.344;2024-03-02T09:55:08;26.42;;;13.20;;
12780;SDS011;6454;43.304;24.344;2024-03-02T09:57:34;22.33;;;11.30;;
12780;SDS011;6454;43.304;24.344;2024-03-02T09:59:59;29.27;;;12.32;;
12780;SDS011;6454;43.304;24.344;2024-03-02T10:02:25;29.77;;;12.07;;
12780;SDS011;6454;43.304;24.344;2024-03-02T10:04:51;25.30;;;12.70;;
12780;SDS011;6454;43.304;24.344;2024-03-02T10:07:17;24.88;;;12.55;;
12780;SDS011;6454;43.304;24.344;2024-03-02T10:09:44;26.88;;;12.35;;
12780;SDS011;6454;43.304;24.344;2024-03-02T10:12:12;25.48;;;12.68;;
12780;SDS011;6454;43.304;24.344;2024-03-02T10:14:38;28.50;;;12.32;;
12780;SDS011;6454;43.304;24.344;2024-03-02T10:17:06;26.08;;;12.10;;
12780;SDS011;6454;43.304;24.344;2024-03-02T10:19:32;27.35;;;12.10;;
12780;SDS011;6454;43.304;24.344;2024-03-02T10:22:00;21.48;;;10.32;;
12780;SDS011;6454;43.304;24.344;2024-03-02T10:24:27;25.23;;;10.98;;
12780;SDS011;6454;43.304;24.344;2024-03-02T10:26:53;24.15;;;11.23;;
12780;SDS011;6454;43.304;24.344;2024-03-02T10:29:19;22.30;;;10.43;;
12780;SDS011;6454;43.304;24.344;2024-03-02T10:31:45;27.67;;;10.80;;
12780;SDS011;6454;43.304;24.344;2024-03-02T10:34:11;24.13;;;10.73;;
12780;SDS011;6454;43.304;24.344;2024-03-02T10:36:41;25.20;;;10.98;;
12780;SDS011;6454;43.304;24.344;2024-03-02T10:39:08;23.25;;;10.68;;
12780;SDS011;6454;43.304;24.344;2024-03-02T10:41:35;20.13;;;10.93;;
12780;SDS011;6454;43.304;24.344;2024-03-02T10:44:06;24.84;;;11.10;;
12780;SDS011;6454;43.304;24.344;2024-03-02T10:46:34;21.38;;;9.50;;
12780;SDS011;6454;43.304;24.344;2024-03-02T10:49:01;19.48;;;9.80;;
12780;SDS011;6454;43.304;24.344;2024-03-02T10:51:28;19.65;;;9.50;;
12780;SDS011;6454;43.304;24.344;2024-03-02T10:53:56;18.88;;;9.63;;
12780;SDS011;6454;43.304;24.344;2024-03-02T10:56:29;24.23;;;11.07;;
12780;SDS011;6454;43.304;24.344;2024-03-02T10:59:46;22.85;;;10.63;;
12780;SDS011;6454;43.304;24.344;2024-03-02T11:01:50;21.80;;;10.20;;
12780;SDS011;6454;43.304;24.344;2024-03-02T11:04:16;20.27;;;9.18;;
12780;SDS011;6454;43.304;24.344;2024-03-02T11:06:45;20.15;;;10.35;;
12780;SDS011;6454;43.304;24.344;2024-03-02T11:09:14;21.63;;;9.93;;
12780;SDS011;6454;43.304;24.344;2024-03-02T11:11:42;20.48;;;9.90;;
12780;SDS011;6454;43.304;24.344;2024-03-02T11:14:16;16.90;;;9.52;;
12780;SDS011;6454;43.304;24.344;2024-03-02T11:16:46;16.27;;;8.05;;
12780;SDS011;6454;43.304;24.344;2024-03-02T11:19:12;19.50;;;9.05;;
12780;SDS011;6454;43.304;24.344;2024-03-02T11:21:39;19.02;;;8.93;;
12780;SDS011;6454;43.304;24.344;2024-03-02T11:26:49;13.40;;;8.38;;
12780;SDS011;6454;43.304;24.344;2024-03-02T11:32:00;15.63;;;8.60;;
12780;SDS011;6454;43.304;24.344;2024-03-02T11:34:33;14.43;;;7.70;;
12780;SDS011;6454;43.304;24.344;2024-03-02T11:37:00;14.00;;;7.60;;
12780;SDS011;6454;43.304;24.344;2024-03-02T11:39:27;16.25;;;8.77;;
12780;SDS011;6454;43.304;24.344;2024-03-02T11:41:53;16.58;;;8.90;;
12780;SDS011;6454;43.304;24.344;2024-03-02T11:44:20;14.50;;;8.50;;
12780;SDS011;6454;43.304;24.344;2024-03-02T11:47:07;16.08;;;7.50;;
12780;SDS011;6454;43.304;24.344;2024-03-02T11:49:39;16.30;;;7.95;;
12780;SDS011;6454;43.304;24.344;2024-03-02T11:52:14;12.18;;;7.25;;
12780;SDS011;6454;43.304;24.344;2024-03-02T11:54:43;14.55;;;8.07;;
12780;SDS011;6454;43.304;24.344;2024-03-02T11:57:14;14.65;;;8.70;;
12780;SDS011;6454;43.304;24.344;2024-03-02T11:59:44;17.75;;;9.43;;
12780;SDS011;6454;43.304;24.344;2024-03-02T12:02:17;17.90;;;8.30;;
12780;SDS011;6454;43.304;24.344;2024-03-02T12:04:46;17.77;;;9.27;;
12780;SDS011;6454;43.304;24.344;2024-03-02T12:07:18;17.08;;;8.75;;
12780;SDS011;6454;43.304;24.344;2024-03-02T12:09:46;15.75;;;8.52;;
12780;SDS011;6454;43.304;24.344;2024-03-02T12:12:11;19.73;;;9.15;;
12780;SDS011;6454;43.304;24.344;2024-03-02T12:14:39;15.02;;;8.57;;
12780;SDS011;6454;43.304;24.344;2024-03-02T12:17:05;18.90;;;8.68;;
12780;SDS011;6454;43.304;24.344;2024-03-02T12:19:31;17.92;;;8.80;;
12780;SDS011;6454;43.304;24.344;2024-03-02T12:21:57;16.38;;;8.02;;
12780;SDS011;6454;43.304;24.344;2024-03-02T12:24:26;16.17;;;8.77;;
12780;SDS011;6454;43.304;24.344;2024-03-02T12:26:53;17.25;;;8.75;;
12780;SDS011;6454;43.304;24.344;2024-03-02T12:29:19;20.98;;;10.10;;
12780;SDS011;6454;43.304;24.344;2024-03-02T12:31:47;18.83;;;10.00;;
12780;SDS011;6454;43.304;24.344;2024-03-02T12:34:14;21.50;;;9.95;;
12780;SDS011;6454;43.304;24.344;2024-03-02T12:36:41;21.20;;;9.63;;
12780;SDS011;6454;43.304;24.344;2024-03-02T12:39:09;20.63;;;10.27;;
12780;SDS011;6454;43.304;24.344;2024-03-02T12:41:38;19.77;;;10.45;;
12780;SDS011;6454;43.304;24.344;2024-03-02T12:44:07;20.30;;;11.10;;
12780;SDS011;6454;43.304;24.344;2024-03-02T12:46:32;20.38;;;10.90;;
12780;SDS011;6454;43.304;24.344;2024-03-02T12:48:58;20.33;;;10.43;;
12780;SDS011;6454;43.304;24.344;2024-03-02T12:51:29;19.58;;;9.95;;
12780;SDS011;6454;43.304;24.344;2024-03-02T12:53:56;22.00;;;9.85;;
12780;SDS011;6454;43.304;24.344;2024-03-02T12:56:23;27.27;;;9.95;;
12780;SDS011;6454;43.304;24.344;2024-03-02T12:58:53;17.52;;;10.35;;
12780;SDS011;6454;43.304;24.344;2024-03-02T13:01:21;22.77;;;10.27;;
12780;SDS011;6454;43.304;24.344;2024-03-02T13:03:50;15.85;;;8.93;;
12780;SDS011;6454;43.304;24.344;2024-03-02T13:06:17;17.75;;;9.32;;
12780;SDS011;6454;43.304;24.344;2024-03-02T13:08:44;17.83;;;8.75;;
12780;SDS011;6454;43.304;24.344;2024-03-02T13:11:10;18.35;;;9.52;;
12780;SDS011;6454;43.304;24.344;2024-03-02T13:13:36;20.23;;;9.95;;
12780;SDS011;6454;43.304;24.344;2024-03-02T13:16:03;17.60;;;9.23;;
12780;SDS011;6454;43.304;24.344;2024-03-02T13:18:29;17.88;;;9.20;;
12780;SDS011;6454;43.304;24.344;2024-03-02T13:20:56;18.55;;;8.77;;
12780;SDS011;6454;43.304;24.344;2024-03-02T13:23:21;17.23;;;8.52;;
12780;SDS011;6454;43.304;24.344;2024-03-02T13:25:47;17.00;;;8.50;;
12780;SDS011;6454;43.304;24.344;2024-03-02T13:28:12;17.73;;;8.57;;
12780;SDS011;6454;43.304;24.344;2024-03-02T13:30:38;15.48;;;8.38;;
12780;SDS011;6454;43.304;24.344;2024-03-02T13:33:04;19.80;;;9.27;;
12780;SDS011;6454;43.304;24.344;2024-03-02T13:35:29;14.05;;;7.97;;
12780;SDS011;6454;43.304;24.344;2024-03-02T13:37:55;15.10;;;7.95;;
12780;SDS011;6454;43.304;24.344;2024-03-02T13:40:20;20.77;;;10.73;;
12780;SDS011;6454;43.304;24.344;2024-03-02T13:42:46;23.15;;;10.45;;
12780;SDS011;6454;43.304;24.344;2024-03-02T13:45:12;35.28;;;16.33;;
12780;SDS011;6454;43.304;24.344;2024-03-02T13:47:38;25.45;;;12.77;;
12780;SDS011;6454;43.304;24.344;2024-03-02T13:50:04;28.88;;;14.10;;
12780;SDS011;6454;43.304;24.344;2024-03-02T13:52:31;27.33;;;12.55;;
12780;SDS011;6454;43.304;24.344;2024-03-02T13:54:56;23.48;;;11.77;;
12780;SDS011;6454;43.304;24.344;2024-03-02T13:57:22;27.65;;;12.50;;
12780;SDS011;6454;43.304;24.344;2024-03-02T13:59:47;27.90;;;11.57;;
12780;SDS011;6454;43.304;24.344;2024-03-02T14:02:14;27.45;;;11.85;;
12780;SDS011;6454;43.304;24.344;2024-03-02T14:04:40;30.60;;;16.95;;
12780;SDS011;6454;43.304;24.344;2024-03-02T14:07:05;28.35;;;13.07;;
12780;SDS011;6454;43.304;24.344;2024-03-02T14:09:35;35.80;;;14.20;;
12780;SDS011;6454;43.304;24.344;2024-03-02T14:12:01;42.70;;;15.18;;
12780;SDS011;6454;43.304;24.344;2024-03-02T14:14:27;35.78;;;15.07;;
12780;SDS011;6454;43.304;24.344;2024-03-02T14:16:56;32.72;;;14.07;;
12780;SDS011;6454;43.304;24.344;2024-03-02T14:19:25;34.80;;;14.77;;
12780;SDS011;6454;43.304;24.344;2024-03-02T14:21:51;27.83;;;13.57;;
12780;SDS011;6454;43.304;24.344;2024-03-02T14:24:16;31.05;;;11.90;;
12780;SDS011;6454;43.304;24.344;2024-03-02T14:26:42;25.90;;;12.23;;
12780;SDS011;6454;43.304;24.344;2024-03-02T14:29:08;27.65;;;12.18;;
12780;SDS011;6454;43.304;24.344;2024-03-02T14:31:33;28.98;;;12.60;;